KHLR/HLR METAR and TAF weather

Enter ICAO airport designator
Station Type Date Time Source
KHLR METAR 2020/10/22 02:58 UTC NOAA

KHLR 220258Z AUTO 15008KT 10SM CLR 24/18 A3000 RMK AO2 SLPNO T02410179 52011


Station Type Date Time Source
KHLR Decoded METAR 2020/10/22 02:58 UTC NOAA

Fort Hood, Hood AAF Ft Hood, TX, United States (KHLR) 31-08N 097-42W
Oct 21, 2020 - 10:58 PM EDT / 2020.10.22 0258 UTC
Wind: from the SSE (150 degrees) at 9 MPH (8 KT):0
Visibility: 10 mile(s):0
Sky conditions: clear
Temperature: 75.4 F (24.1 C)
Dew Point: 64.2 F (17.9 C)
Relative Humidity: 68%
Pressure (altimeter): 30 in. Hg (1015 hPa)
Pressure tendency: 0.03 inches (1.1 hPa) higher than three hours ago
ob: KHLR 220258Z AUTO 15008KT 10SM CLR 24/18 A3000 RMK AO2 SLPNO T02410179 52011
cycle: 3

Station Type Date Time Source
KHLR TAF UTC NOAA

Error!

Example: see airport list